Time;durP1;ratioP1;P1;durP2;ratioP2;P2;SDS_P1;SDS_P2;PMS_P1;PMS_P2;Temp;Humidity;BMP_temperature;BMP_pressure;BME280_temperature;BME280_humidity;BME280_pressure;Samples;Min_cycle;Max_cycle;Signal;HPM_P1;HPM_P2
2022/12/25 00:01:46;;;;;;;42.97;16.97;;;6.90;99.90;;;;;;5030527;28;20453;-69
2022/12/25 00:04:13;;;;;;;47.70;17.57;;;6.90;99.90;;;;;;5030484;28;20508;-69
2022/12/25 00:06:39;;;;;;;48.40;19.60;;;6.90;99.90;;;;;;5030488;28;20469;-69
2022/12/25 00:09:06;;;;;;;49.30;18.80;;;7.00;99.90;;;;;;5030397;28;20492;-69
2022/12/25 00:11:34;;;;;;;73.63;21.40;;;7.00;99.90;;;;;;5029988;28;20449;-69
2022/12/25 00:14:01;;;;;;;68.93;21.33;;;7.00;99.90;;;;;;5030653;28;20454;-69
2022/12/25 00:16:28;;;;;;;71.63;21.50;;;7.00;99.90;;;;;;5036445;28;20469;-69
2022/12/25 00:18:57;;;;;;;89.63;23.27;;;7.00;99.90;;;;;;5030361;28;20454;-69
2022/12/25 00:21:24;;;;;;;72.17;20.23;;;7.00;99.90;;;;;;5030095;28;20446;-69
2022/12/25 00:23:54;;;;;;;53.87;19.60;;;7.00;99.90;;;;;;5030320;28;20446;-69
2022/12/25 00:26:21;;;;;;;74.90;21.43;;;7.00;99.90;;;;;;5030057;28;20513;-69
2022/12/25 00:28:51;;;;;;;68.07;20.00;;;7.00;99.90;;;;;;5030056;28;20489;-69
2022/12/25 00:31:18;;;;;;;61.70;20.40;;;6.90;99.90;;;;;;5030298;28;20469;-69
2022/12/25 00:33:47;;;;;;;54.37;19.73;;;6.90;99.90;;;;;;5030118;28;20453;-69
2022/12/25 00:36:16;;;;;;;52.13;19.10;;;6.90;99.90;;;;;;5030110;28;20482;-69
2022/12/25 00:38:43;;;;;;;46.07;19.63;;;6.90;99.90;;;;;;5022066;28;20460;-69
2022/12/25 00:41:11;;;;;;;55.70;19.20;;;6.90;99.90;;;;;;5030226;28;20454;-70
2022/12/25 00:43:40;;;;;;;57.40;18.80;;;6.90;99.90;;;;;;5030069;28;20450;-69
2022/12/25 00:46:10;;;;;;;53.50;19.50;;;6.90;99.90;;;;;;5030132;28;20465;-69
2022/12/25 00:48:37;;;;;;;48.50;18.97;;;6.90;99.90;;;;;;5029815;28;20442;-69
2022/12/25 00:51:06;;;;;;;47.40;16.70;;;6.90;99.90;;;;;;5029758;28;20460;-69
2022/12/25 00:53:32;;;;;;;46.70;17.30;;;6.80;99.90;;;;;;5029640;28;20455;-69
2022/12/25 00:56:02;;;;;;;56.40;18.23;;;6.80;99.90;;;;;;5030056;28;20519;-70
2022/12/25 00:58:30;;;;;;;60.20;18.07;;;6.70;99.90;;;;;;5029884;28;20453;-69
2022/12/25 01:00:57;;;;;;;81.47;18.27;;;6.60;99.90;;;;;;5029766;28;20450;-69
2022/12/25 01:03:26;;;;;;;68.23;17.40;;;6.60;99.90;;;;;;5029636;28;20458;-69
2022/12/25 01:05:57;;;;;;;49.97;16.27;;;6.50;99.90;;;;;;5030510;28;20477;-69
2022/12/25 01:08:24;;;;;;;56.63;18.90;;;6.50;99.90;;;;;;5033458;28;20465;-69
2022/12/25 01:10:55;;;;;;;49.40;17.10;;;6.50;99.90;;;;;;5033234;28;20492;-69
2022/12/25 01:13:21;;;;;;;66.63;17.40;;;6.50;99.90;;;;;;5033237;28;20456;-69
2022/12/25 01:15:48;;;;;;;54.23;18.10;;;6.50;99.90;;;;;;5036190;28;20468;-69
2022/12/25 01:18:15;;;;;;;54.63;17.83;;;6.50;99.90;;;;;;5037265;28;20511;-69
2022/12/25 01:20:43;;;;;;;73.77;18.07;;;6.50;99.90;;;;;;5025359;28;20449;-69
2022/12/25 01:23:10;;;;;;;47.83;18.17;;;6.50;99.90;;;;;;5033459;28;20671;-69
2022/12/25 01:25:36;;;;;;;40.03;17.77;;;6.50;99.90;;;;;;5033371;28;20485;-69
2022/12/25 01:28:03;;;;;;;45.63;17.30;;;6.50;99.90;;;;;;5033030;28;21075;-69
2022/12/25 01:30:30;;;;;;;46.03;19.60;;;6.50;99.90;;;;;;5033166;28;20488;-69
2022/12/25 01:32:57;;;;;;;46.33;19.53;;;6.50;99.90;;;;;;5033223;28;20974;-69
2022/12/25 01:35:24;;;;;;;41.47;18.57;;;6.60;99.90;;;;;;5033076;28;20477;-69
2022/12/25 01:37:52;;;;;;;42.27;19.00;;;6.60;99.90;;;;;;5033243;28;20449;-69
2022/12/25 01:40:19;;;;;;;35.20;17.73;;;6.60;99.90;;;;;;5032892;28;20500;-69
2022/12/25 01:42:45;;;;;;;28.67;15.90;;;6.60;99.90;;;;;;5032842;28;20507;-69
2022/12/25 01:45:41;;;;;;;31.10;16.20;;;6.60;99.90;;;;;;5033208;28;20477;-69
2022/12/25 01:48:13;;;;;;;44.00;17.13;;;6.70;99.90;;;;;;5032990;28;21012;-69
2022/12/25 01:50:45;;;;;;;29.07;15.73;;;6.70;99.90;;;;;;5032623;28;20486;-69
2022/12/25 01:53:13;;;;;;;36.60;17.87;;;6.70;99.90;;;;;;5032318;28;20454;-69
2022/12/25 01:55:41;;;;;;;39.77;17.27;;;6.70;99.90;;;;;;5032790;28;20473;-69
2022/12/25 01:58:09;;;;;;;44.17;17.83;;;6.80;99.90;;;;;;5032849;28;20457;-69
2022/12/25 02:00:36;;;;;;;37.13;16.77;;;6.80;99.90;;;;;;5032493;28;20446;-69
2022/12/25 02:03:03;;;;;;;36.43;16.03;;;6.80;99.90;;;;;;5032636;28;20869;-69
2022/12/25 02:05:32;;;;;;;37.73;16.97;;;6.90;99.90;;;;;;5032526;28;20485;-69
2022/12/25 02:08:04;;;;;;;38.30;17.27;;;6.90;99.90;;;;;;5032800;28;20450;-69
2022/12/25 02:10:32;;;;;;;37.03;16.40;;;7.00;99.90;;;;;;5032397;28;20485;-69
2022/12/25 02:12:59;;;;;;;48.87;17.13;;;7.00;99.90;;;;;;5032424;28;20515;-69
2022/12/25 02:15:31;;;;;;;37.80;16.07;;;7.00;99.90;;;;;;5032174;28;20887;-69
2022/12/25 02:18:03;;;;;;;42.10;16.20;;;7.10;99.90;;;;;;5026392;28;20453;-69
2022/12/25 02:21:05;;;;;;;38.13;16.50;;;7.10;99.90;;;;;;5032505;28;20453;-69
2022/12/25 02:24:02;;;;;;;39.03;16.90;;;7.10;99.90;;;;;;5032296;28;20446;-69
2022/12/25 02:26:55;;;;;;;43.37;17.07;;;7.10;99.90;;;;;;5032394;28;20523;-69
2022/12/25 02:29:28;;;;;;;38.70;15.67;;;7.10;99.90;;;;;;5031873;28;20493;-69
2022/12/25 02:31:59;;;;;;;41.33;17.03;;;7.10;99.90;;;;;;5032287;28;20454;-69
2022/12/25 02:34:32;;;;;;;36.40;15.70;;;7.10;99.90;;;;;;5031746;28;20938;-69
2022/12/25 02:37:04;;;;;;;50.90;16.77;;;7.10;99.90;;;;;;5032335;28;20457;-69
2022/12/25 03:07:24;;;;;;;40.23;16.50;;;7.40;99.90;;;;;;5031194;28;20532;-69
2022/12/25 03:12:46;;;;;;;36.03;15.60;;;7.50;99.90;;;;;;5031168;28;20806;-69
2022/12/25 03:18:03;;;;;;;53.87;18.03;;;7.50;99.90;;;;;;5024612;28;20426;-69
2022/12/25 03:28:58;;;;;;;54.97;19.70;;;7.60;99.90;;;;;;5025403;28;20747;-69
2022/12/25 03:31:28;;;;;;;72.10;21.77;;;7.70;99.90;;;;;;5030923;28;20496;-69
2022/12/25 03:37:19;;;;;;;66.37;22.40;;;7.70;99.90;;;;;;5031285;28;20437;-70
2022/12/25 04:37:52;;;;;;;70.63;24.83;;;7.90;99.90;;;;;;5030258;28;20461;-70
2022/12/25 04:40:20;;;;;;;79.87;25.70;;;7.90;99.90;;;;;;5029968;28;20453;-69
2022/12/25 04:42:49;;;;;;;77.07;24.27;;;8.00;99.90;;;;;;5033609;28;20456;-70
2022/12/25 04:45:15;;;;;;;75.73;24.17;;;8.00;99.90;;;;;;5034019;28;21012;-70
2022/12/25 04:47:42;;;;;;;56.17;22.60;;;8.00;99.90;;;;;;5034458;28;20810;-70
2022/12/25 04:50:09;;;;;;;74.20;23.60;;;8.00;99.90;;;;;;5034021;28;20492;-70
2022/12/25 04:52:36;;;;;;;64.57;23.53;;;8.00;99.90;;;;;;5033757;28;20458;-70
2022/12/25 04:55:04;;;;;;;73.67;24.30;;;8.00;99.90;;;;;;5033474;28;21032;-70
2022/12/25 04:57:32;;;;;;;95.37;25.20;;;8.00;99.90;;;;;;5034166;28;20453;-70
2022/12/25 04:59:59;;;;;;;84.50;25.10;;;8.00;99.90;;;;;;5033747;28;20449;-70
2022/12/25 05:02:25;;;;;;;65.60;25.80;;;8.00;99.90;;;;;;5033705;28;20449;-70
2022/12/25 05:04:52;;;;;;;71.03;26.23;;;8.00;99.90;;;;;;5026064;28;20468;-69
2022/12/25 05:07:19;;;;;;;84.07;25.00;;;8.00;99.90;;;;;;5033751;28;20453;-69
2022/12/25 05:09:45;;;;;;;75.03;25.97;;;8.00;99.90;;;;;;5033448;28;20449;-70
2022/12/25 05:12:13;;;;;;;75.10;26.27;;;8.00;99.90;;;;;;5033894;28;20476;-69
2022/12/25 05:14:41;;;;;;;82.70;25.20;;;8.00;99.90;;;;;;5033351;28;20954;-70
2022/12/25 05:17:07;;;;;;;59.73;23.10;;;8.00;99.90;;;;;;5033794;28;20465;-70
2022/12/25 05:19:34;;;;;;;89.73;25.50;;;8.00;99.90;;;;;;5033460;28;20528;-70
2022/12/25 05:22:01;;;;;;;67.43;24.00;;;8.00;99.90;;;;;;5033332;28;20502;-70
2022/12/25 05:24:28;;;;;;;88.77;25.97;;;8.00;99.90;;;;;;5033576;28;20941;-70
2022/12/25 05:26:55;;;;;;;92.60;26.90;;;8.00;99.90;;;;;;5033526;28;20445;-70
2022/12/25 05:29:21;;;;;;;66.87;25.27;;;8.00;99.90;;;;;;5033521;28;20464;-70
2022/12/25 05:31:49;;;;;;;64.03;24.63;;;8.00;99.90;;;;;;5033043;28;20506;-69
2022/12/25 05:34:16;;;;;;;78.23;26.10;;;8.00;99.90;;;;;;5033411;28;20454;-70
2022/12/25 05:36:43;;;;;;;84.10;26.60;;;8.00;99.90;;;;;;5032823;28;20469;-70
2022/12/25 05:39:09;;;;;;;74.03;24.50;;;8.00;99.90;;;;;;5033059;28;20449;-70
2022/12/25 05:41:36;;;;;;;71.70;24.87;;;8.00;99.90;;;;;;5033031;28;20449;-69
2022/12/25 05:44:03;;;;;;;82.27;22.97;;;8.00;99.90;;;;;;5033176;28;20461;-70
2022/12/25 05:46:30;;;;;;;71.67;23.70;;;8.00;99.90;;;;;;5032883;28;20480;-70
2022/12/25 05:48:58;;;;;;;64.60;23.00;;;8.00;99.90;;;;;;5033385;28;20461;-70
2022/12/25 05:51:25;;;;;;;61.80;20.73;;;8.00;99.90;;;;;;5032533;28;20489;-70
2022/12/25 05:53:52;;;;;;;59.17;22.30;;;8.00;99.90;;;;;;5032486;28;20450;-70
2022/12/25 05:56:18;;;;;;;81.70;20.10;;;8.00;99.90;;;;;;5032867;28;20470;-70
2022/12/25 05:58:45;;;;;;;54.97;19.57;;;8.00;99.90;;;;;;5032493;28;20480;-70
2022/12/25 06:01:13;;;;;;;52.30;17.43;;;8.00;99.90;;;;;;5032560;28;20508;-70
2022/12/25 06:03:40;;;;;;;51.70;19.03;;;7.90;99.90;;;;;;5032893;28;20618;-70
2022/12/25 06:06:10;;;;;;;47.03;17.50;;;7.90;99.90;;;;;;5032374;28;20473;-70
2022/12/25 06:08:37;;;;;;;47.33;17.70;;;7.90;99.90;;;;;;5032364;28;20465;-71
2022/12/25 06:11:05;;;;;;;48.90;17.50;;;7.90;99.90;;;;;;5032339;28;20848;-70
2022/12/25 06:13:32;;;;;;;61.70;20.33;;;7.90;99.90;;;;;;5032129;28;20503;-70
2022/12/25 06:15:59;;;;;;;74.50;21.77;;;7.90;99.90;;;;;;5032901;28;20504;-70
2022/12/25 06:18:26;;;;;;;53.07;20.53;;;7.90;99.90;;;;;;5027813;28;20503;-70
2022/12/25 06:20:53;;;;;;;44.90;18.60;;;7.90;99.90;;;;;;5027515;28;20446;-70
2022/12/25 06:23:21;;;;;;;49.07;17.83;;;7.90;99.90;;;;;;5028536;28;20674;-70
2022/12/25 06:25:47;;;;;;;50.90;17.40;;;7.80;99.90;;;;;;5028625;28;20801;-70
2022/12/25 06:28:14;;;;;;;51.37;17.17;;;7.80;99.90;;;;;;5028353;28;20512;-70
2022/12/25 06:30:41;;;;;;;53.00;17.23;;;7.80;99.90;;;;;;5028054;28;20547;-70
2022/12/25 06:33:07;;;;;;;44.90;15.60;;;7.80;99.90;;;;;;5028468;28;20938;-70
2022/12/25 06:35:34;;;;;;;42.33;15.93;;;7.80;99.90;;;;;;5028189;28;20473;-71
2022/12/25 06:38:01;;;;;;;42.20;15.40;;;7.80;99.90;;;;;;5028988;28;20465;-71
2022/12/25 06:40:29;;;;;;;52.80;16.50;;;7.80;99.90;;;;;;5027309;28;20453;-70
2022/12/25 06:42:55;;;;;;;45.30;15.50;;;7.80;99.90;;;;;;5024107;28;20453;-70
2022/12/25 06:45:22;;;;;;;30.70;15.00;;;7.80;99.90;;;;;;5027543;28;20473;-70
2022/12/25 06:47:48;;;;;;;45.77;17.33;;;7.80;99.90;;;;;;5027620;28;21233;-70
2022/12/25 06:50:15;;;;;;;38.63;15.20;;;7.80;99.90;;;;;;5028046;28;20843;-70
2022/12/25 06:52:42;;;;;;;42.80;16.90;;;7.80;99.90;;;;;;5027715;28;20454;-72
2022/12/25 06:55:09;;;;;;;47.00;16.70;;;7.80;99.90;;;;;;5027481;28;20477;-72
2022/12/25 06:57:37;;;;;;;29.40;15.07;;;7.80;99.90;;;;;;5027124;28;20454;-72
2022/12/25 07:00:05;;;;;;;36.50;16.00;;;7.80;99.90;;;;;;5026223;28;20454;-72
2022/12/25 07:02:34;;;;;;;33.27;14.10;;;7.80;99.90;;;;;;5027712;28;20449;-72
2022/12/25 07:05:01;;;;;;;33.87;12.60;;;7.80;99.90;;;;;;5026764;28;20531;-72
2022/12/25 07:07:27;;;;;;;43.47;12.90;;;7.80;99.90;;;;;;5027634;28;20536;-71
2022/12/25 07:09:54;;;;;;;31.17;12.80;;;7.80;99.90;;;;;;5026943;28;20453;-72
2022/12/25 07:12:23;;;;;;;40.27;13.90;;;7.80;99.90;;;;;;5026764;28;20903;-72
2022/12/25 07:14:54;;;;;;;33.87;13.63;;;7.80;99.90;;;;;;5027223;28;20600;-73
2022/12/25 07:17:22;;;;;;;30.57;13.27;;;7.90;99.90;;;;;;5027215;28;20452;-73
2022/12/25 07:19:49;;;;;;;29.23;13.90;;;7.90;99.90;;;;;;5026962;28;20458;-73
2022/12/25 07:22:16;;;;;;;35.87;13.93;;;7.90;99.90;;;;;;5027186;28;20453;-73
2022/12/25 07:24:43;;;;;;;48.37;13.20;;;7.80;99.90;;;;;;5027223;28;20477;-73
2022/12/25 07:27:10;;;;;;;44.33;17.00;;;7.90;99.90;;;;;;5027006;28;20454;-73
2022/12/25 07:29:36;;;;;;;36.53;15.03;;;7.80;99.90;;;;;;5026892;28;20500;-73
2022/12/25 07:32:05;;;;;;;37.53;14.10;;;7.80;99.90;;;;;;5026643;28;21029;-73
2022/12/25 07:34:32;;;;;;;42.67;14.77;;;7.80;99.90;;;;;;5027254;28;20457;-73
2022/12/25 07:36:59;;;;;;;34.57;14.50;;;7.80;99.90;;;;;;5026824;28;20446;-73
2022/12/25 07:39:25;;;;;;;47.37;14.13;;;7.80;99.90;;;;;;5026690;28;20847;-73
2022/12/25 07:41:52;;;;;;;35.43;13.03;;;7.80;99.90;;;;;;5026744;28;20454;-73
2022/12/25 07:44:19;;;;;;;35.27;12.60;;;7.80;99.90;;;;;;5026961;28;20477;-73
2022/12/25 07:46:46;;;;;;;31.83;13.00;;;7.80;99.90;;;;;;5026441;28;20527;-73
2022/12/25 07:49:14;;;;;;;38.43;14.73;;;7.80;99.90;;;;;;5026585;28;20453;-73
2022/12/25 07:51:40;;;;;;;26.60;11.80;;;7.90;99.90;;;;;;5026110;28;20485;-73
2022/12/25 07:54:07;;;;;;;34.03;13.07;;;7.80;99.90;;;;;;5026946;28;20449;-73
2022/12/25 07:56:34;;;;;;;29.00;13.70;;;7.80;99.90;;;;;;5026475;28;20482;-73
2022/12/25 07:59:00;;;;;;;44.30;13.60;;;7.80;99.90;;;;;;5026518;28;20539;-73
2022/12/25 08:01:28;;;;;;;34.20;13.40;;;7.80;99.90;;;;;;5026572;28;20453;-73
2022/12/25 08:03:56;;;;;;;31.10;12.40;;;7.80;99.90;;;;;;5026764;28;20461;-73
2022/12/25 08:06:28;;;;;;;27.70;13.43;;;7.80;99.90;;;;;;5026272;28;20492;-73
2022/12/25 08:08:55;;;;;;;33.13;13.53;;;7.80;99.90;;;;;;5024652;28;20486;-68
2022/12/25 08:11:21;;;;;;;33.43;12.53;;;7.80;99.90;;;;;;5026052;28;20486;-68
2022/12/25 08:13:48;;;;;;;28.20;12.90;;;7.80;99.90;;;;;;5025703;28;20453;-68
2022/12/25 08:16:15;;;;;;;37.27;15.63;;;7.80;99.90;;;;;;5025867;28;20473;-68
2022/12/25 08:18:42;;;;;;;25.73;13.60;;;7.80;99.90;;;;;;5025865;28;20458;-68
2022/12/25 08:21:11;;;;;;;33.23;15.80;;;7.80;99.90;;;;;;5025600;28;20450;-68
2022/12/25 08:23:41;;;;;;;39.43;16.80;;;7.80;99.90;;;;;;5025520;28;20504;-70
2022/12/25 08:26:10;;;;;;;38.10;16.03;;;7.80;99.90;;;;;;5025412;28;20965;-71
2022/12/25 08:28:37;;;;;;;50.63;18.80;;;7.80;99.90;;;;;;5025745;28;20462;-73
2022/12/25 08:31:08;;;;;;;35.93;17.20;;;7.80;99.90;;;;;;5025398;28;20497;-73
2022/12/25 08:33:36;;;;;;;43.80;18.00;;;7.90;99.90;;;;;;5024444;28;20971;-72
2022/12/25 08:36:04;;;;;;;35.80;18.03;;;7.90;99.90;;;;;;5025836;28;20892;-73
2022/12/25 08:38:31;;;;;;;42.10;18.40;;;7.90;99.90;;;;;;5025824;28;20453;-72
2022/12/25 08:40:59;;;;;;;39.87;17.57;;;7.90;99.90;;;;;;5025012;28;20457;-70
2022/12/25 08:43:25;;;;;;;31.07;16.37;;;7.90;99.90;;;;;;5025643;28;20453;-79
2022/12/25 08:45:52;;;;;;;24.40;13.40;;;7.90;99.90;;;;;;5025356;28;20476;-75
2022/12/25 08:48:19;;;;;;;48.17;17.87;;;8.00;99.90;;;;;;5025818;28;20471;-72
2022/12/25 08:50:46;;;;;;;31.87;14.77;;;8.20;99.90;;;;;;5025037;28;20446;-77
2022/12/25 08:53:13;;;;;;;28.97;15.23;;;8.20;99.90;;;;;;5025546;28;20469;-76
2022/12/25 08:55:39;;;;;;;24.37;14.03;;;8.10;99.90;;;;;;5025758;28;20493;-75
2022/12/25 08:58:08;;;;;;;22.23;12.53;;;8.10;99.90;;;;;;5024776;28;20892;-69
2022/12/25 09:00:35;;;;;;;27.17;12.50;;;8.10;99.90;;;;;;5024420;28;20445;-69
2022/12/25 09:03:02;;;;;;;38.87;14.17;;;8.10;99.90;;;;;;5025453;28;20449;-71
2022/12/25 09:05:29;;;;;;;29.40;13.23;;;8.10;99.90;;;;;;5025605;28;20508;-70
2022/12/25 09:07:55;;;;;;;39.07;15.37;;;8.10;99.90;;;;;;5025206;28;20446;-72
2022/12/25 09:10:22;;;;;;;39.20;14.37;;;8.10;99.90;;;;;;5025043;28;20454;-71
2022/12/25 09:12:49;;;;;;;25.53;11.80;;;8.10;99.90;;;;;;5024793;28;20490;-72
2022/12/25 09:15:17;;;;;;;30.70;12.43;;;8.10;99.90;;;;;;5025538;28;20470;-70
2022/12/25 09:17:43;;;;;;;26.27;12.93;;;8.10;99.90;;;;;;5025076;28;20449;-70
2022/12/25 09:20:10;;;;;;;31.53;12.27;;;8.10;99.90;;;;;;5024529;28;21040;-71
2022/12/25 09:22:37;;;;;;;30.20;12.20;;;8.10;99.90;;;;;;5024691;28;20972;-70
2022/12/25 09:25:04;;;;;;;20.83;10.57;;;8.10;99.90;;;;;;5025058;28;20489;-73
2022/12/25 09:27:31;;;;;;;17.93;11.00;;;8.10;99.90;;;;;;5027074;28;20461;-72
2022/12/25 09:29:58;;;;;;;35.70;10.60;;;8.10;99.90;;;;;;5027793;28;20468;-71
2022/12/25 09:32:26;;;;;;;27.33;9.90;;;8.10;99.90;;;;;;5027922;28;20488;-68
2022/12/25 09:34:52;;;;;;;29.67;10.33;;;8.10;99.90;;;;;;5028331;28;20473;-71
2022/12/25 09:37:19;;;;;;;21.37;9.20;;;8.10;99.90;;;;;;5028168;28;20457;-70
2022/12/25 09:39:46;;;;;;;25.50;10.30;;;8.10;99.90;;;;;;5028945;28;20508;-70
2022/12/25 09:42:17;;;;;;;23.23;10.40;;;8.20;99.90;;;;;;5028355;28;20448;-70
2022/12/25 09:44:47;;;;;;;18.97;8.70;;;8.20;99.90;;;;;;5028579;28;20465;-72
2022/12/25 09:47:18;;;;;;;24.97;8.87;;;8.20;99.90;;;;;;5028918;28;20450;-71
2022/12/25 09:49:50;;;;;;;15.80;8.40;;;8.20;99.90;;;;;;5028283;28;20449;-70
2022/12/25 09:52:20;;;;;;;17.87;9.30;;;8.20;99.90;;;;;;5028908;28;20481;-70
2022/12/25 09:54:53;;;;;;;17.10;9.47;;;8.20;99.90;;;;;;5028087;28;20473;-70
2022/12/25 09:57:19;;;;;;;20.37;8.30;;;8.20;99.90;;;;;;5028588;28;20449;-71
2022/12/25 09:59:46;;;;;;;17.17;9.00;;;8.30;99.90;;;;;;5028171;28;20473;-70
2022/12/25 10:02:34;;;;;;;23.40;8.80;;;8.30;99.90;;;;;;5028796;28;20797;-71
2022/12/25 10:05:16;;;;;;;19.83;9.13;;;8.30;99.90;;;;;;5027775;28;21395;-70
2022/12/25 10:07:54;;;;;;;12.60;7.43;;;8.30;99.90;;;;;;5028399;28;20462;-71
2022/12/25 10:10:39;;;;;;;16.43;8.20;;;8.30;99.90;;;;;;5028255;28;20460;-71
2022/12/25 10:13:21;;;;;;;21.80;8.87;;;8.40;99.90;;;;;;5028124;28;20879;-71
2022/12/25 10:15:54;;;;;;;18.60;7.40;;;8.40;99.90;;;;;;5027543;28;20481;-70
2022/12/25 10:18:38;;;;;;;12.90;7.33;;;8.50;99.90;;;;;;5028399;28;20978;-72
2022/12/25 10:21:12;;;;;;;19.83;8.07;;;8.40;99.90;;;;;;5027758;28;21259;-73
2022/12/25 10:23:43;;;;;;;18.00;8.03;;;8.40;99.90;;;;;;5028231;28;20715;-72
2022/12/25 10:26:15;;;;;;;13.83;7.60;;;8.50;99.90;;;;;;5027882;28;20527;-73
2022/12/25 10:28:44;;;;;;;12.97;7.80;;;8.50;99.90;;;;;;5027998;28;20793;-72
2022/12/25 10:31:19;;;;;;;12.43;8.30;;;8.50;99.90;;;;;;5028093;28;20462;-73
2022/12/25 10:33:46;;;;;;;24.37;9.17;;;8.40;99.90;;;;;;5027685;28;20889;-73
2022/12/25 10:36:17;;;;;;;14.17;8.00;;;8.40;99.90;;;;;;5027778;28;20469;-72
2022/12/25 10:38:45;;;;;;;15.40;8.53;;;8.40;99.90;;;;;;5027317;28;20446;-72
2022/12/25 10:41:25;;;;;;;13.10;8.23;;;8.40;99.90;;;;;;5027441;28;20967;-72
2022/12/25 10:43:54;;;;;;;19.13;8.70;;;8.40;99.90;;;;;;5027789;28;20445;-72
2022/12/25 10:46:22;;;;;;;14.07;9.60;;;8.40;99.90;;;;;;5027471;28;20466;-73
2022/12/25 10:48:51;;;;;;;17.50;8.83;;;8.40;99.90;;;;;;5028270;28;20442;-73
2022/12/25 10:51:29;;;;;;;15.43;8.63;;;8.40;99.90;;;;;;5031194;28;20457;-72
2022/12/25 10:53:56;;;;;;;15.57;8.47;;;8.40;99.90;;;;;;5030967;28;20450;-73
2022/12/25 10:56:23;;;;;;;21.93;9.83;;;8.50;99.90;;;;;;5026831;28;20511;-73
2022/12/25 10:58:50;;;;;;;18.97;9.43;;;8.50;99.90;;;;;;5027460;28;20454;-69
2022/12/25 11:01:17;;;;;;;15.37;10.43;;;8.50;99.90;;;;;;5027199;28;20450;-72
2022/12/25 11:03:47;;;;;;;16.40;9.50;;;8.50;99.90;;;;;;5029145;28;20473;-72
2022/12/25 11:06:23;;;;;;;16.27;10.60;;;8.50;99.90;;;;;;5030790;28;20492;-72
2022/12/25 11:08:55;;;;;;;16.13;9.60;;;8.60;99.90;;;;;;5030151;28;20488;-72
2022/12/25 11:11:22;;;;;;;16.30;10.33;;;8.60;99.90;;;;;;5030740;28;20887;-72
2022/12/25 11:13:52;;;;;;;17.53;8.60;;;8.60;99.90;;;;;;5030163;28;20493;-72
2022/12/25 11:16:28;;;;;;;24.70;10.27;;;8.60;99.90;;;;;;5030404;28;20474;-72
2022/12/25 11:18:56;;;;;;;22.87;9.80;;;8.70;99.90;;;;;;5030209;28;20456;-72
2022/12/25 11:21:25;;;;;;;19.20;8.90;;;8.70;99.90;;;;;;5030660;28;20449;-72
2022/12/25 11:23:58;;;;;;;20.47;9.90;;;8.70;99.90;;;;;;5030224;28;21013;-72
2022/12/25 11:26:25;;;;;;;20.40;9.43;;;8.70;99.90;;;;;;5030216;28;20556;-72
2022/12/25 11:28:54;;;;;;;20.33;8.63;;;8.70;99.90;;;;;;5030121;28;20464;-72
2022/12/25 11:31:22;;;;;;;14.33;8.27;;;8.70;99.90;;;;;;5030337;28;20546;-72
2022/12/25 11:33:53;;;;;;;13.37;9.03;;;8.70;99.90;;;;;;5030000;28;20544;-72
2022/12/25 11:36:28;;;;;;;13.47;9.50;;;8.70;99.90;;;;;;5030091;28;20837;-72
2022/12/25 11:38:58;;;;;;;13.97;8.73;;;8.70;99.90;;;;;;5029626;28;20456;-72
2022/12/25 11:41:33;;;;;;;14.53;8.40;;;8.70;99.90;;;;;;5030173;28;20452;-72
2022/12/25 11:44:03;;;;;;;15.93;8.30;;;8.70;99.90;;;;;;5029937;28;20567;-72
2022/12/25 11:46:38;;;;;;;10.77;8.10;;;8.80;99.90;;;;;;5029816;28;20477;-72
2022/12/25 11:49:07;;;;;;;10.67;8.00;;;8.80;99.90;;;;;;5029826;28;20467;-72
2022/12/25 11:51:38;;;;;;;10.63;7.80;;;8.80;99.90;;;;;;5024184;28;20453;-72
2022/12/25 11:54:17;;;;;;;12.00;8.00;;;8.80;99.90;;;;;;5029667;28;20507;-72
2022/12/25 11:56:44;;;;;;;16.27;8.37;;;8.90;99.90;;;;;;5029991;28;20493;-72
2022/12/25 11:59:17;;;;;;;12.70;7.37;;;8.90;99.90;;;;;;5029538;28;20446;-72
2022/12/25 12:01:48;;;;;;;10.63;7.40;;;8.90;99.90;;;;;;5029587;28;20442;-72
2022/12/25 12:04:21;;;;;;;21.13;9.03;;;9.00;99.90;;;;;;5030164;28;20449;-72
2022/12/25 12:06:55;;;;;;;15.77;9.90;;;9.00;99.90;;;;;;5029381;28;20978;-72
2022/12/25 12:09:37;;;;;;;12.77;7.70;;;9.00;99.90;;;;;;5029633;28;20473;-72
2022/12/25 12:12:10;;;;;;;14.10;8.50;;;9.10;99.90;;;;;;5029078;28;20453;-72
2022/12/25 12:14:47;;;;;;;14.87;8.70;;;9.10;99.90;;;;;;5029392;28;20442;-72
2022/12/25 12:17:16;;;;;;;8.70;7.10;;;9.10;99.90;;;;;;5029741;28;20445;-72
2022/12/25 12:19:44;;;;;;;18.40;8.60;;;9.10;99.90;;;;;;5029407;28;20444;-72
2022/12/25 12:22:18;;;;;;;11.23;7.87;;;9.10;99.90;;;;;;5029165;28;20448;-72
2022/12/25 12:24:50;;;;;;;10.67;7.77;;;9.10;99.90;;;;;;5029510;28;21027;-72
2022/12/25 12:27:23;;;;;;;16.87;9.07;;;9.10;99.90;;;;;;5027932;28;20462;-72
2022/12/25 12:29:51;;;;;;;11.37;8.40;;;9.10;99.90;;;;;;5024358;28;20458;-70
2022/12/25 12:32:34;;;;;;;12.57;8.23;;;9.20;99.90;;;;;;5025904;28;20866;-71
2022/12/25 12:35:08;;;;;;;14.33;8.93;;;9.20;99.90;;;;;;5025709;28;20461;-71
2022/12/25 12:37:37;;;;;;;15.50;8.87;;;9.20;99.90;;;;;;5025664;28;20450;-68
2022/12/25 12:40:08;;;;;;;14.80;8.10;;;9.20;99.90;;;;;;5025369;28;20942;-68
2022/12/25 12:42:43;;;;;;;15.70;8.90;;;9.30;99.90;;;;;;5025756;28;20451;-68
2022/12/25 12:45:17;;;;;;;14.00;8.40;;;9.30;99.90;;;;;;5025120;28;20811;-68
2022/12/25 12:47:47;;;;;;;12.77;8.17;;;9.30;99.90;;;;;;5025263;28;20446;-68
2022/12/25 12:50:31;;;;;;;12.00;8.20;;;9.30;99.90;;;;;;5025835;28;20446;-69
2022/12/25 12:53:04;;;;;;;13.50;8.37;;;9.30;99.90;;;;;;5025638;28;20484;-69
2022/12/25 12:55:33;;;;;;;17.97;8.93;;;9.30;99.90;;;;;;5025833;28;21133;-68
2022/12/25 12:58:02;;;;;;;16.17;8.60;;;9.30;99.90;;;;;;5025746;28;20465;-68
2022/12/25 13:00:36;;;;;;;18.80;8.80;;;9.30;99.90;;;;;;5025827;28;20490;-69
2022/12/25 13:03:27;;;;;;;17.90;9.50;;;9.30;99.90;;;;;;5027809;28;20449;-69
2022/12/25 13:05:57;;;;;;;13.20;8.67;;;9.30;99.90;;;;;;5029164;28;20989;-69
2022/12/25 13:08:44;;;;;;;16.57;8.90;;;9.30;99.90;;;;;;5029318;28;20458;-69
2022/12/25 13:11:17;;;;;;;16.30;8.93;;;9.30;99.90;;;;;;5029818;28;20464;-71
2022/12/25 13:13:46;;;;;;;11.90;8.60;;;9.30;99.90;;;;;;5029026;28;20482;-71
2022/12/25 13:16:20;;;;;;;15.77;8.07;;;9.30;99.90;;;;;;5028960;28;20500;-70
2022/12/25 13:18:47;;;;;;;17.40;8.83;;;9.30;99.90;;;;;;5028718;28;20515;-72
2022/12/25 13:21:19;;;;;;;11.67;8.17;;;9.30;99.90;;;;;;5028828;28;20462;-72
2022/12/25 13:23:45;;;;;;;14.33;8.37;;;9.30;99.90;;;;;;5028735;28;20481;-70
2022/12/25 13:26:16;;;;;;;18.00;9.50;;;9.30;99.90;;;;;;5028493;28;20477;-71
2022/12/25 13:28:46;;;;;;;15.90;8.40;;;9.30;99.90;;;;;;5028283;28;20569;-71
2022/12/25 13:31:18;;;;;;;17.27;9.40;;;9.30;99.90;;;;;;5028704;28;20457;-70
2022/12/25 13:33:46;;;;;;;11.80;8.77;;;9.30;99.90;;;;;;5028384;28;20986;-71
2022/12/25 13:36:14;;;;;;;14.20;8.43;;;9.40;99.90;;;;;;5028515;28;20831;-72
2022/12/25 13:38:45;;;;;;;12.30;7.27;;;9.40;99.90;;;;;;5028557;28;20466;-71
2022/12/25 13:44:03;;;;;;;10.77;8.50;;;9.40;99.90;;;;;;5028186;28;20461;-72
2022/12/25 13:46:29;;;;;;;10.53;8.73;;;9.50;99.90;;;;;;5028446;28;20477;-71
2022/12/25 13:48:58;;;;;;;13.50;9.87;;;9.50;99.90;;;;;;5028022;28;20461;-72
2022/12/25 13:51:25;;;;;;;18.77;8.73;;;9.50;99.90;;;;;;5028025;28;20550;-72
2022/12/25 13:54:03;;;;;;;14.83;8.97;;;9.50;99.90;;;;;;5027955;28;20512;-71
2022/12/25 13:56:32;;;;;;;13.97;8.90;;;9.50;99.90;;;;;;5027361;28;20560;-71
2022/12/25 13:58:59;;;;;;;16.60;10.10;;;9.50;99.90;;;;;;5027812;28;20450;-72
2022/12/25 14:01:26;;;;;;;21.20;10.07;;;9.40;99.90;;;;;;5028159;28;20454;-71
2022/12/25 14:03:54;;;;;;;15.83;9.00;;;9.40;99.90;;;;;;5028264;28;20465;-71
2022/12/25 14:06:25;;;;;;;15.43;9.37;;;9.40;99.90;;;;;;5028030;28;20808;-71
2022/12/25 14:08:53;;;;;;;16.80;10.20;;;9.40;99.90;;;;;;5027594;28;20465;-72
2022/12/25 14:11:24;;;;;;;12.43;8.63;;;9.40;99.90;;;;;;5028103;28;20461;-71
2022/12/25 14:13:57;;;;;;;15.77;10.03;;;9.40;99.90;;;;;;5026982;28;20857;-71
2022/12/25 14:16:24;;;;;;;19.03;10.60;;;9.40;99.90;;;;;;5027577;28;20476;-71
2022/12/25 14:18:54;;;;;;;14.97;10.00;;;9.40;99.90;;;;;;5027481;28;20449;-71
2022/12/25 14:21:28;;;;;;;13.53;9.70;;;9.40;99.90;;;;;;5027573;28;20453;-71
2022/12/25 14:23:55;;;;;;;16.40;8.83;;;9.40;99.90;;;;;;5027106;28;20532;-71
2022/12/25 14:26:24;;;;;;;16.60;10.40;;;9.40;99.90;;;;;;5026919;28;20474;-71
2022/12/25 14:28:54;;;;;;;18.93;9.67;;;9.40;99.90;;;;;;5026756;28;20492;-71
2022/12/25 14:31:23;;;;;;;14.10;9.83;;;9.40;99.90;;;;;;5027567;28;20445;-71
2022/12/25 14:33:51;;;;;;;14.13;10.00;;;9.40;99.90;;;;;;5027493;28;20473;-70
2022/12/25 14:36:18;;;;;;;18.00;9.70;;;9.40;99.90;;;;;;5028230;28;20478;-71
2022/12/25 14:38:56;;;;;;;19.60;10.30;;;9.40;99.90;;;;;;5028204;28;20507;-71